createdAt,value
2019-05-09T00:02:04.713Z,99377.19
2019-05-09T00:05:09.491Z,99376.89
2019-05-09T00:08:13.977Z,99373.47
2019-05-09T00:11:17.882Z,99367.99
2019-05-09T00:14:23.851Z,99366.03
2019-05-09T00:17:27.008Z,99369.71
2019-05-09T00:20:37.924Z,99367.99
2019-05-09T00:23:43.670Z,99361.11
2019-05-09T00:26:47.449Z,99363.54
2019-05-09T00:29:53.191Z,99358.84
2019-05-09T00:32:57.026Z,99362.92
2019-05-09T00:36:00.725Z,99374.00
2019-05-09T00:39:05.462Z,99382.58
2019-05-09T00:42:09.171Z,99377.66
2019-05-09T00:45:23.869Z,99383.37
2019-05-09T00:48:33.814Z,99388.75
2019-05-09T00:51:37.620Z,99388.84
2019-05-09T00:54:43.672Z,99387.26
2019-05-09T00:57:46.749Z,99385.62
2019-05-09T01:00:50.440Z,99387.16
2019-05-09T01:03:54.215Z,99393.20
2019-05-09T01:06:57.918Z,99396.80
2019-05-09T01:10:04.065Z,99392.25
2019-05-09T01:13:07.042Z,99391.50
2019-05-09T01:16:10.740Z,99391.22
2019-05-09T01:19:14.749Z,99389.33
2019-05-09T01:22:18.516Z,99391.13
2019-05-09T01:25:23.994Z,99385.53
2019-05-09T01:28:27.884Z,99388.38
2019-05-09T01:31:33.301Z,99386.77
2019-05-09T01:34:37.542Z,99379.59
2019-05-09T01:37:43.307Z,99391.69
2019-05-09T01:40:47.033Z,99382.98
2019-05-09T01:43:50.732Z,99384.32
2019-05-09T01:46:54.940Z,99382.53
2019-05-09T01:49:58.640Z,99383.18
2019-05-09T01:53:04.126Z,99384.86
2019-05-09T01:56:07.871Z,99383.05
2019-05-09T01:59:13.530Z,99389.03
2019-05-09T02:02:17.277Z,99382.01
2019-05-09T02:05:21.047Z,99393.93
2019-05-09T02:08:24.825Z,99401.67
2019-05-09T02:11:41.675Z,99394.88
2019-05-09T02:14:40.642Z,99395.42
2019-05-09T02:18:01.135Z,99404.73
2019-05-09T02:20:57.230Z,99395.84
2019-05-09T02:24:03.053Z,99399.23
2019-05-09T02:27:06.330Z,99402.35
2019-05-09T02:30:14.703Z,99397.05
2019-05-09T02:33:35.538Z,99399.33
2019-05-09T02:36:39.227Z,99394.09
2019-05-09T02:39:42.908Z,99395.62
2019-05-09T02:42:49.002Z,99399.81
2019-05-09T02:46:14.808Z,99400.91
2019-05-09T02:49:19.271Z,99400.38
2019-05-09T02:52:23.224Z,99393.16
2019-05-09T02:55:28.862Z,99391.94
2019-05-09T02:58:38.842Z,99389.30
2019-05-09T03:01:59.405Z,99385.69
2019-05-09T03:05:03.094Z,99388.28
2019-05-09T03:08:09.063Z,99379.59
2019-05-09T03:11:12.297Z,99386.11
2019-05-09T03:14:19.343Z,99383.75
2019-05-09T03:17:21.662Z,99384.30
2019-05-09T03:20:49.367Z,99393.39
2019-05-09T03:23:53.218Z,99396.41
2019-05-09T03:27:01.458Z,99401.75
2019-05-09T03:30:11.471Z,99397.66
2019-05-09T03:33:12.585Z,99401.95
2019-05-09T03:36:18.161Z,99412.45
2019-05-09T03:39:21.771Z,99407.98
2019-05-09T03:42:38.136Z,99412.27
2019-05-09T03:45:31.768Z,99415.53
2019-05-09T03:48:40.740Z,99417.96
2019-05-09T03:51:44.440Z,99428.92
2019-05-09T03:54:48.128Z,99430.84
2019-05-09T03:58:01.014Z,99422.85
2019-05-09T04:01:04.767Z,99433.51
2019-05-09T04:04:08.893Z,99425.17
2019-05-09T04:07:12.644Z,99430.94
2019-05-09T04:10:18.055Z,99427.67
2019-05-09T04:13:25.479Z,99434.67
2019-05-09T04:16:29.167Z,99434.31
2019-05-09T04:19:32.861Z,99432.91
2019-05-09T04:22:38.514Z,99427.84
2019-05-09T04:25:48.259Z,99425.73
2019-05-09T04:28:51.957Z,99423.11
2019-05-09T04:31:57.532Z,99420.45
2019-05-09T04:35:01.415Z,99429.54
2019-05-09T04:38:07.345Z,99428.45
2019-05-09T04:41:10.545Z,99431.95
2019-05-09T04:44:21.763Z,99429.41
2019-05-09T04:47:25.251Z,99436.25
2019-05-09T04:50:28.954Z,99431.48
2019-05-09T04:53:32.823Z,99443.89
2019-05-09T04:56:39.189Z,99449.41
2019-05-09T04:59:42.901Z,99450.73
2019-05-09T05:02:49.596Z,99462.55
2019-05-09T05:05:53.306Z,99469.38
2019-05-09T05:08:58.593Z,99472.45
2019-05-09T05:12:02.383Z,99473.88
2019-05-09T05:15:08.015Z,99478.80
2019-05-09T05:18:11.790Z,99474.95
2019-05-09T05:21:15.492Z,99476.66
2019-05-09T05:24:27.788Z,99476.80
2019-05-09T05:27:31.840Z,99481.45
2019-05-09T05:30:37.351Z,99485.93
2019-05-09T05:34:08.233Z,99485.53
2019-05-09T05:37:11.566Z,99481.66
2019-05-09T05:40:17.678Z,99483.55
2019-05-09T05:43:21.239Z,99492.53
2019-05-09T05:46:31.405Z,99489.50
2019-05-09T05:49:35.182Z,99491.41
2019-05-09T05:52:38.877Z,99498.03
2019-05-09T05:55:42.620Z,99498.78
2019-05-09T05:58:48.794Z,99506.27
2019-05-09T06:01:51.763Z,99514.03
2019-05-09T06:04:57.760Z,99514.14
2019-05-09T06:08:01.109Z,99521.72
2019-05-09T06:11:08.550Z,99522.88
2019-05-09T06:14:11.899Z,99519.37
2019-05-09T06:17:17.943Z,99511.78
2019-05-09T06:20:21.449Z,99518.58
2019-05-09T06:23:25.149Z,99511.40
2019-05-09T06:26:29.396Z,99522.39
2019-05-09T06:29:33.437Z,99517.83
2019-05-09T06:32:38.445Z,99524.56
2019-05-09T06:35:42.646Z,99521.69
2019-05-09T06:38:48.592Z,99530.50
2019-05-09T06:41:51.758Z,99536.77
2019-05-09T06:45:13.425Z,99531.09
2019-05-09T06:48:18.107Z,99534.03
2019-05-09T06:51:22.175Z,99535.80
2019-05-09T06:54:27.871Z,99535.99
2019-05-09T06:57:31.375Z,99536.07
2019-05-09T07:00:50.371Z,99538.91
2019-05-09T07:03:58.000Z,99544.44
2019-05-09T07:07:11.750Z,99546.51
2019-05-09T07:10:17.693Z,99553.20
2019-05-09T07:13:20.961Z,99556.94
2019-05-09T07:16:24.650Z,99559.36
2019-05-09T07:19:28.349Z,99562.69
2019-05-09T07:22:42.194Z,99558.45
2019-05-09T07:26:07.869Z,99558.64
2019-05-09T07:29:11.573Z,99557.98
2019-05-09T07:32:27.709Z,99560.99
2019-05-09T07:35:32.202Z,99559.47
2019-05-09T07:38:38.311Z,99561.65
2019-05-09T07:41:41.357Z,99561.49
2019-05-09T07:44:49.033Z,99560.81
2019-05-09T07:47:50.520Z,99564.21
2019-05-09T07:50:54.922Z,99564.61
2019-05-09T07:53:59.131Z,99563.17
2019-05-09T07:57:02.912Z,99560.94
2019-05-09T08:00:07.873Z,99559.20
2019-05-09T08:03:13.193Z,99563.05
2019-05-09T08:06:18.409Z,99567.83
2019-05-09T08:09:22.320Z,99574.11
2019-05-09T08:12:28.307Z,99585.67
2019-05-09T08:15:31.464Z,99584.38
2019-05-09T08:18:37.454Z,99593.20
2019-05-09T08:21:41.010Z,99595.67
2019-05-09T08:24:44.742Z,99593.87
2019-05-09T08:27:48.460Z,99584.19
2019-05-09T08:30:52.295Z,99583.66
2019-05-09T08:33:56.007Z,99578.55
2019-05-09T08:36:59.719Z,99579.58
2019-05-09T08:40:03.743Z,99584.82
2019-05-09T08:43:07.787Z,99592.73
2019-05-09T08:46:12.543Z,99592.09
2019-05-09T08:49:18.260Z,99596.16
2019-05-09T08:52:22.047Z,99603.58
2019-05-09T08:55:27.777Z,99601.64
2019-05-09T08:58:31.312Z,99603.72
2019-05-09T09:02:01.646Z,99607.83
2019-05-09T09:04:40.611Z,99609.57
2019-05-09T09:07:44.340Z,99614.99
2019-05-09T09:10:48.963Z,99616.72
2019-05-09T09:13:52.807Z,99614.13
2019-05-09T09:16:57.595Z,99603.40
2019-05-09T09:20:01.819Z,99613.88
2019-05-09T09:23:05.588Z,99611.27
2019-05-09T09:26:09.375Z,99614.13
2019-05-09T09:29:13.106Z,99609.45
2019-05-09T09:32:18.967Z,99604.23
2019-05-09T09:35:22.658Z,99611.61
2019-05-09T09:38:28.133Z,99602.08
2019-05-09T09:41:31.899Z,99605.94
2019-05-09T09:44:35.631Z,99613.37
2019-05-09T09:47:40.429Z,99610.91
2019-05-09T09:50:44.410Z,99609.20
2019-05-09T09:53:48.955Z,99615.54
2019-05-09T09:56:53.891Z,99613.91
2019-05-09T10:00:00.847Z,99614.44
2019-05-09T10:03:04.542Z,99619.32
2019-05-09T10:06:08.531Z,99614.92
2019-05-09T10:09:12.633Z,99605.23
2019-05-09T10:12:18.219Z,99613.34
2019-05-09T10:15:38.294Z,99605.84
2019-05-09T10:18:59.204Z,99603.95
2019-05-09T10:22:03.418Z,99609.64
2019-05-09T10:25:07.903Z,99604.37
2019-05-09T10:28:11.651Z,99600.70
2019-05-09T10:31:15.337Z,99611.41
2019-05-09T10:34:19.042Z,99603.72
2019-05-09T10:37:22.829Z,99612.72
2019-05-09T10:40:28.135Z,99608.73
2019-05-09T10:43:41.701Z,99603.90
2019-05-09T10:46:57.503Z,99599.34
2019-05-09T10:49:58.674Z,99607.08
2019-05-09T10:53:02.395Z,99603.53
2019-05-09T10:56:08.717Z,99601.39
2019-05-09T10:59:11.717Z,99612.06
2019-05-09T11:02:17.531Z,99607.78
2019-05-09T11:05:20.945Z,99598.92
2019-05-09T11:08:24.645Z,99598.30
2019-05-09T11:11:28.959Z,99591.93
2019-05-09T11:14:37.305Z,99592.33
2019-05-09T11:17:38.988Z,99594.50
2019-05-09T11:20:42.782Z,99594.21
2019-05-09T11:23:48.833Z,99602.77
2019-05-09T11:26:51.891Z,99599.70
2019-05-09T11:29:57.851Z,99593.86
2019-05-09T11:33:01.311Z,99600.17
2019-05-09T11:36:05.105Z,99606.21
2019-05-09T11:39:10.651Z,99599.53
2019-05-09T11:42:14.961Z,99586.66
2019-05-09T11:45:18.737Z,99600.73
2019-05-09T11:48:22.434Z,99600.91
2019-05-09T11:51:29.053Z,99605.73
2019-05-09T11:54:31.558Z,99604.53
2019-05-09T11:57:35.253Z,99599.86
2019-05-09T12:00:38.978Z,99611.44
2019-05-09T12:03:42.725Z,99610.66
2019-05-09T12:06:46.427Z,99605.11
2019-05-09T12:09:50.704Z,99600.56
2019-05-09T12:12:54.391Z,99604.16
2019-05-09T12:15:58.523Z,99602.06
2019-05-09T12:19:02.256Z,99607.31
2019-05-09T12:22:08.757Z,99611.64
2019-05-09T12:25:11.814Z,99608.09
2019-05-09T12:28:15.505Z,99613.53
2019-05-09T12:31:19.203Z,99615.48
2019-05-09T12:34:22.966Z,99613.39
2019-05-09T12:37:28.163Z,99611.34
2019-05-09T12:40:32.121Z,99608.33
2019-05-09T12:43:38.203Z,99612.31
2019-05-09T12:46:41.255Z,99609.41
2019-05-09T12:49:44.976Z,99606.16
2019-05-09T12:52:48.907Z,99611.68
2019-05-09T12:55:59.966Z,99612.03
2019-05-09T12:59:03.752Z,99617.52
2019-05-09T13:02:07.739Z,99615.03
2019-05-09T13:05:11.600Z,99612.45
2019-05-09T13:08:17.293Z,99615.56
2019-05-09T13:11:20.811Z,99610.96
2019-05-09T13:14:24.498Z,99613.11
2019-05-09T13:17:31.735Z,99608.72
2019-05-09T13:20:38.097Z,99607.88
2019-05-09T13:23:40.892Z,99620.77
2019-05-09T13:26:47.986Z,99618.29
2019-05-09T13:29:51.945Z,99612.92
2019-05-09T13:32:55.700Z,99614.69
2019-05-09T13:35:59.406Z,99621.69
2019-05-09T13:39:05.362Z,99624.12
2019-05-09T13:42:09.765Z,99626.16
2019-05-09T13:45:13.949Z,99623.23
2019-05-09T13:48:28.056Z,99617.03
2019-05-09T13:51:23.107Z,99613.94
2019-05-09T13:54:28.589Z,99623.77
2019-05-09T13:57:32.680Z,99636.38
2019-05-09T14:00:38.891Z,99632.77
2019-05-09T14:03:41.838Z,99636.72
2019-05-09T14:06:45.629Z,99630.47
2019-05-09T14:09:49.356Z,99642.37
2019-05-09T14:13:05.652Z,99645.13
2019-05-09T14:15:58.446Z,99638.95
2019-05-09T14:19:24.591Z,99638.59
2019-05-09T14:22:08.312Z,99647.36
2019-05-09T14:25:12.151Z,99645.83
2019-05-09T14:28:15.870Z,99641.55
2019-05-09T14:31:19.559Z,99642.20
2019-05-09T14:34:23.317Z,99634.19
2019-05-09T14:37:28.391Z,99634.77
2019-05-09T14:40:32.126Z,99635.44
2019-05-09T14:43:39.541Z,99631.41
2019-05-09T14:46:43.600Z,99622.89
2019-05-09T14:49:49.961Z,99629.48
2019-05-09T14:52:52.758Z,99629.58
2019-05-09T14:55:58.833Z,99628.34
2019-05-09T14:59:01.938Z,99635.51
2019-05-09T15:02:08.849Z,99635.13
2019-05-09T15:05:11.775Z,99642.83
2019-05-09T15:08:17.940Z,99649.47
2019-05-09T15:11:20.961Z,99657.52
2019-05-09T15:14:25.456Z,99650.36
2019-05-09T15:17:29.196Z,99663.61
2019-05-09T15:20:32.976Z,99656.96
2019-05-09T15:23:39.094Z,99653.22
2019-05-09T15:26:42.390Z,99660.52
2019-05-09T15:29:48.581Z,99658.47
2019-05-09T15:32:52.253Z,99659.81
2019-05-09T15:35:58.732Z,99664.59
2019-05-09T15:39:02.224Z,99664.42
2019-05-09T15:42:07.423Z,99661.27
2019-05-09T15:45:11.474Z,99665.52
2019-05-09T15:48:15.192Z,99669.98
2019-05-09T15:51:18.899Z,99664.02
2019-05-09T15:54:23.012Z,99666.94
2019-05-09T15:57:27.541Z,99672.66
2019-05-09T16:00:31.446Z,99676.69
2019-05-09T16:03:35.220Z,99670.01
2019-05-09T16:06:39.314Z,99663.94
2019-05-09T16:09:43.093Z,99668.06
2019-05-09T16:12:48.626Z,99669.73
2019-05-09T16:15:52.255Z,99675.74
2019-05-09T16:18:58.085Z,99671.98
2019-05-09T16:22:02.147Z,99681.86
2019-05-09T16:25:06.214Z,99675.89
2019-05-09T16:28:09.907Z,99674.20
2019-05-09T16:31:13.806Z,99677.61
2019-05-09T16:34:17.912Z,99671.06
2019-05-09T16:37:21.832Z,99664.52
2019-05-09T16:40:27.819Z,99676.03
2019-05-09T16:43:30.999Z,99674.47
2019-05-09T16:46:37.330Z,99676.03
2019-05-09T16:49:40.736Z,99673.48
2019-05-09T16:52:44.476Z,99670.33
2019-05-09T16:55:48.174Z,99672.38
2019-05-09T16:58:51.923Z,99679.80
2019-05-09T17:01:57.832Z,99674.81
2019-05-09T17:05:01.933Z,99665.45
2019-05-09T17:08:08.018Z,99680.39
2019-05-09T17:11:11.488Z,99680.39
2019-05-09T17:14:15.472Z,99678.59
2019-05-09T17:17:19.557Z,99678.59
2019-05-09T17:20:28.454Z,99686.47
2019-05-09T17:23:32.311Z,99686.47
2019-05-09T17:26:37.890Z,99687.05
2019-05-09T17:29:41.447Z,99683.39
2019-05-09T17:32:47.468Z,99685.06
2019-05-09T17:35:51.267Z,99687.16
2019-05-09T17:38:54.989Z,99684.88
2019-05-09T17:41:58.780Z,99684.88
2019-05-09T17:45:03.505Z,99682.08
2019-05-09T17:48:08.569Z,99691.58
2019-05-09T17:51:12.409Z,99691.58
2019-05-09T17:54:18.244Z,99692.44
2019-05-09T17:57:21.595Z,99687.81
2019-05-09T18:00:27.898Z,99693.76
2019-05-09T18:03:31.138Z,99697.02
2019-05-09T18:06:34.869Z,99702.84
2019-05-09T18:09:38.905Z,99707.08
2019-05-09T18:12:42.605Z,99714.61
2019-05-09T18:15:48.327Z,99714.09
2019-05-09T18:18:54.641Z,99721.38
2019-05-09T18:21:58.439Z,99720.66
2019-05-09T18:25:02.579Z,99726.05
2019-05-09T18:28:06.486Z,99734.41
2019-05-09T18:31:10.505Z,99735.10
2019-05-09T18:34:14.209Z,99737.77
2019-05-09T18:37:17.923Z,99742.57
2019-05-09T18:40:22.918Z,99740.56
2019-05-09T18:43:27.444Z,99740.97
2019-05-09T18:46:31.439Z,99741.61
2019-05-09T18:49:35.222Z,99742.77
2019-05-09T18:52:39.188Z,99744.17
2019-05-09T18:55:42.978Z,99751.09
2019-05-09T18:58:46.724Z,99751.50
2019-05-09T19:01:50.420Z,99754.78
2019-05-09T19:04:54.144Z,99756.36
2019-05-09T19:07:58.046Z,99759.20
2019-05-09T19:11:01.820Z,99763.02
2019-05-09T19:14:06.659Z,99761.08
2019-05-09T19:17:29.411Z,99761.92
2019-05-09T19:20:55.838Z,99766.25
2019-05-09T19:23:59.559Z,99768.62
2019-05-09T19:27:03.265Z,99768.42
2019-05-09T19:30:07.425Z,99772.08
2019-05-09T19:33:11.210Z,99779.64
2019-05-09T19:36:14.928Z,99783.27
2019-05-09T19:39:18.986Z,99781.45
2019-05-09T19:42:22.702Z,99777.45
2019-05-09T19:45:26.493Z,99782.20
2019-05-09T19:48:30.218Z,99788.19
2019-05-09T19:51:34.193Z,99781.45
2019-05-09T19:54:37.901Z,99788.44
2019-05-09T19:57:41.633Z,99788.63
2019-05-09T20:00:45.688Z,99799.90
2019-05-09T20:03:49.474Z,99796.80
2019-05-09T20:06:53.185Z,99803.52
2019-05-09T20:10:03.411Z,99808.05
2019-05-09T20:13:13.137Z,99801.52
2019-05-09T20:16:16.821Z,99801.14
2019-05-09T20:19:20.542Z,99799.58
2019-05-09T20:22:24.266Z,99808.60
2019-05-09T20:25:28.000Z,99815.33
2019-05-09T20:28:31.712Z,99816.38
2019-05-09T20:31:35.854Z,99816.95
2019-05-09T20:34:39.608Z,99820.45
2019-05-09T20:37:43.494Z,99824.55
2019-05-09T20:40:47.377Z,99820.09
2019-05-09T20:43:51.269Z,99822.76
2019-05-09T20:46:55.174Z,99821.70
2019-05-09T20:49:59.057Z,99828.15
2019-05-09T20:53:09.596Z,99829.00
2019-05-09T20:56:08.903Z,99828.39
2019-05-09T20:59:12.805Z,99835.37
2019-05-09T21:02:16.679Z,99836.70
2019-05-09T21:05:20.573Z,99837.08
2019-05-09T21:08:24.538Z,99839.13
2019-05-09T21:11:28.412Z,99838.00
2019-05-09T21:14:32.327Z,99841.74
2019-05-09T21:17:36.259Z,99848.48
2019-05-09T21:20:40.497Z,99848.58
2019-05-09T21:23:44.458Z,99851.91
2019-05-09T21:26:48.341Z,99856.81
2019-05-09T21:29:52.306Z,99858.05
2019-05-09T21:32:56.543Z,99861.48
2019-05-09T21:36:00.841Z,99861.21
2019-05-09T21:39:06.238Z,99858.41
2019-05-09T21:42:09.999Z,99855.50
2019-05-09T21:45:14.011Z,99859.50
2019-05-09T21:48:17.714Z,99870.52
2019-05-09T21:51:21.408Z,99871.06
2019-05-09T21:54:25.394Z,99875.36
2019-05-09T21:57:29.116Z,99873.63
2019-05-09T22:00:36.628Z,99874.69
2019-05-09T22:03:40.465Z,99878.37
2019-05-09T22:06:44.189Z,99878.78
2019-05-09T22:09:48.193Z,99879.16
2019-05-09T22:12:51.965Z,99884.73
2019-05-09T22:15:55.667Z,99880.21
2019-05-09T22:18:59.368Z,99876.80
2019-05-09T22:22:03.096Z,99881.41
2019-05-09T22:25:07.606Z,99880.58
2019-05-09T22:28:11.303Z,99880.55
2019-05-09T22:31:14.999Z,99880.30
2019-05-09T22:34:18.693Z,99878.38
2019-05-09T22:37:22.412Z,99889.06
2019-05-09T22:40:26.118Z,99884.55
2019-05-09T22:43:30.169Z,99890.86
2019-05-09T22:46:33.876Z,99887.82
2019-05-09T22:49:37.572Z,99895.09
2019-05-09T22:52:41.290Z,99890.48
2019-05-09T22:55:45.027Z,99891.21
2019-05-09T22:58:48.759Z,99894.23
2019-05-09T23:01:52.469Z,99894.20
2019-05-09T23:04:56.170Z,99894.96
2019-05-09T23:07:59.952Z,99898.19
2019-05-09T23:11:03.798Z,99898.78
2019-05-09T23:14:07.566Z,99895.48
2019-05-09T23:17:11.576Z,99898.34
2019-05-09T23:20:36.107Z,99896.43
2019-05-09T23:23:42.338Z,99893.30
2019-05-09T23:26:46.071Z,99891.12
2019-05-09T23:29:49.779Z,99895.80
2019-05-09T23:32:53.579Z,99890.15
2019-05-09T23:35:57.306Z,99893.12
2019-05-09T23:39:26.329Z,99889.31
2019-05-09T23:42:30.174Z,99888.16
2019-05-09T23:45:33.895Z,99887.49
2019-05-09T23:48:38.007Z,99887.03
2019-05-09T23:51:45.727Z,99892.54
2019-05-09T23:55:07.435Z,99886.06
2019-05-09T23:58:29.057Z,99887.97
